createdAt,value
2022-11-28T00:04:51.413Z,13.60
2022-11-28T00:09:52.238Z,13.70
2022-11-28T00:14:53.258Z,12.40
2022-11-28T00:19:53.994Z,12.43
2022-11-28T00:24:55.439Z,12.60
2022-11-28T00:29:56.335Z,12.20
2022-11-28T00:34:57.102Z,12.98
2022-11-28T00:39:57.926Z,16.77
2022-11-28T00:44:58.730Z,15.20
2022-11-28T00:49:59.451Z,15.50
2022-11-28T00:55:00.580Z,21.12
2022-11-28T01:00:01.347Z,16.10
2022-11-28T01:05:02.291Z,16.92
2022-11-28T01:10:03.705Z,14.35
2022-11-28T01:15:07.280Z,17.42
2022-11-28T01:20:09.103Z,13.35
2022-11-28T01:25:10.034Z,19.08
2022-11-28T01:30:10.902Z,14.38
2022-11-28T01:35:11.921Z,17.67
2022-11-28T01:40:13.230Z,13.05
2022-11-28T01:45:20.911Z,13.77
2022-11-28T01:50:23.450Z,13.45
2022-11-28T01:55:28.624Z,13.27
2022-11-28T02:00:29.862Z,12.75
2022-11-28T02:05:30.740Z,12.88
2022-11-28T02:10:48.259Z,13.77
2022-11-28T02:17:40.478Z,13.62
2022-11-28T02:22:56.668Z,11.68
2022-11-28T02:28:35.280Z,12.98
2022-11-28T02:33:43.703Z,12.55
2022-11-28T02:45:44.317Z,13.25
2022-11-28T02:51:14.301Z,12.43
2022-11-28T02:56:15.274Z,12.73
2022-11-28T03:01:27.559Z,12.07
2022-11-28T03:07:48.482Z,12.32
2022-11-28T03:14:45.702Z,12.57
2022-11-28T03:20:01.099Z,11.35
2022-11-28T03:25:19.968Z,12.13
2022-11-28T03:30:32.302Z,12.02
2022-11-28T03:35:39.118Z,11.70
2022-11-28T03:40:45.116Z,11.75
2022-11-28T03:45:56.145Z,11.77
2022-11-28T03:51:15.747Z,13.23
2022-11-28T03:56:28.279Z,12.43
2022-11-28T04:01:35.530Z,11.63
2022-11-28T04:09:50.957Z,12.05
2022-11-28T04:14:57.359Z,12.52
2022-11-28T04:20:20.193Z,11.93
2022-11-28T04:25:23.415Z,12.25
2022-11-28T04:30:26.945Z,11.85
2022-11-28T04:35:32.641Z,11.82
2022-11-28T04:47:25.253Z,12.05
2022-11-28T04:52:37.825Z,12.52
2022-11-28T04:58:12.414Z,11.80
2022-11-28T05:03:13.336Z,11.88
2022-11-28T05:08:14.710Z,12.80
2022-11-28T05:13:16.002Z,12.95
2022-11-28T05:18:16.792Z,12.43
2022-11-28T05:23:17.740Z,13.43
2022-11-28T05:28:18.518Z,13.30
2022-11-28T05:33:19.241Z,11.65
2022-11-28T05:38:20.233Z,12.95
2022-11-28T05:43:21.076Z,12.75
2022-11-28T05:48:22.652Z,13.43
2022-11-28T05:53:23.706Z,12.90
2022-11-28T05:58:24.561Z,12.32
2022-11-28T06:03:25.342Z,14.43
2022-11-28T06:08:26.151Z,13.10
2022-11-28T06:13:27.211Z,12.82
2022-11-28T06:18:27.984Z,12.68
2022-11-28T06:23:29.111Z,12.18
2022-11-28T06:28:29.868Z,14.48
2022-11-28T06:33:30.721Z,17.87
2022-11-28T06:38:32.461Z,15.52
2022-11-28T06:43:34.086Z,13.05
2022-11-28T06:48:34.806Z,14.13
2022-11-28T06:53:35.861Z,13.00
2022-11-28T06:58:36.807Z,13.05
2022-11-28T07:03:38.796Z,31.00
2022-11-28T07:08:40.164Z,17.42
2022-11-28T07:13:42.105Z,13.80
2022-11-28T07:18:49.094Z,14.27
2022-11-28T07:23:51.556Z,14.90
2022-11-28T07:28:52.615Z,15.23
2022-11-28T07:33:53.391Z,15.98
2022-11-28T07:38:57.060Z,14.27
2022-11-28T07:44:00.268Z,17.23
2022-11-28T07:49:02.079Z,13.30
2022-11-28T07:54:04.402Z,21.80
2022-11-28T07:59:05.821Z,13.47
2022-11-28T08:04:09.172Z,14.50
2022-11-28T08:09:13.345Z,15.35
2022-11-28T08:14:14.207Z,14.55
2022-11-28T08:19:15.301Z,13.00
2022-11-28T08:24:16.274Z,14.38
2022-11-28T08:29:17.064Z,13.90
2022-11-28T08:34:17.805Z,13.57
2022-11-28T08:39:26.497Z,13.35
2022-11-28T08:44:30.234Z,13.57
2022-11-28T08:49:31.907Z,14.05
2022-11-28T08:54:32.932Z,17.70
2022-11-28T08:59:33.721Z,14.25
2022-11-28T09:04:34.453Z,17.70
2022-11-28T09:09:35.242Z,14.43
2022-11-28T09:14:37.019Z,19.15
2022-11-28T09:19:38.508Z,22.92
2022-11-28T09:24:39.344Z,18.08
2022-11-28T09:29:40.496Z,15.75
2022-11-28T09:34:41.493Z,18.23
2022-11-28T09:40:04.932Z,13.13
2022-11-28T09:45:24.470Z,13.15
2022-11-28T09:50:30.457Z,13.88
2022-11-28T09:55:41.150Z,13.95
2022-11-28T10:01:15.265Z,15.82
2022-11-28T10:06:53.208Z,13.68
2022-11-28T10:12:42.961Z,13.23
2022-11-28T10:19:20.309Z,13.65
2022-11-28T10:24:54.702Z,17.08
2022-11-28T10:30:05.919Z,15.32
2022-11-28T10:35:25.159Z,13.45
2022-11-28T10:41:06.813Z,15.00
2022-11-28T10:54:13.688Z,13.68
2022-11-28T10:59:56.989Z,13.00
2022-11-28T11:04:57.824Z,16.33
2022-11-28T11:10:14.001Z,16.62
2022-11-28T11:15:41.347Z,15.38
2022-11-28T11:20:42.497Z,17.62
2022-11-28T11:25:54.864Z,21.48
2022-11-28T11:31:14.563Z,17.25
2022-11-28T11:36:34.960Z,16.87
2022-11-28T11:41:38.007Z,16.62
2022-11-28T11:47:02.044Z,16.23
2022-11-28T11:52:25.474Z,15.90
2022-11-28T12:00:11.113Z,16.17
2022-11-28T12:05:20.264Z,15.63
2022-11-28T12:10:25.735Z,30.77
2022-11-28T12:15:55.662Z,17.52
2022-11-28T12:21:33.893Z,23.33
2022-11-28T12:26:51.268Z,17.80
2022-11-28T12:32:24.211Z,18.62
2022-11-28T12:38:35.625Z,19.63
2022-11-28T12:45:29.854Z,20.17
2022-11-28T12:50:39.227Z,21.30
2022-11-28T12:57:26.531Z,19.95
2022-11-28T13:02:52.620Z,21.15
2022-11-28T13:08:52.296Z,20.15
2022-11-28T13:14:12.840Z,21.58
2022-11-28T13:22:22.812Z,22.67
2022-11-28T13:27:48.233Z,22.48
2022-11-28T13:33:29.803Z,21.60
2022-11-28T13:40:17.835Z,22.70
2022-11-28T13:45:32.489Z,20.80
2022-11-28T13:50:39.084Z,22.00
2022-11-28T13:55:45.751Z,26.60
2022-11-28T14:01:04.205Z,30.52
2022-11-28T14:06:06.682Z,23.65
2022-11-28T14:11:39.841Z,21.00
2022-11-28T14:20:32.397Z,24.95
2022-11-28T14:25:40.767Z,21.73
2022-11-28T14:30:45.139Z,20.55
2022-11-28T14:36:52.720Z,22.92
2022-11-28T14:43:20.268Z,24.48
2022-11-28T14:48:31.447Z,20.48
2022-11-28T14:53:51.138Z,21.50
2022-11-28T14:58:56.430Z,21.90
2022-11-28T15:04:22.306Z,23.50
2022-11-28T15:09:38.104Z,23.62
2022-11-28T15:14:39.811Z,22.37
2022-11-28T15:19:47.430Z,25.20
2022-11-28T15:24:51.866Z,23.95
2022-11-28T15:30:00.896Z,25.37
2022-11-28T15:35:10.825Z,24.63
2022-11-28T15:40:34.997Z,32.72
2022-11-28T15:45:37.029Z,25.40
2022-11-28T15:50:49.864Z,30.90
2022-11-28T15:56:14.339Z,32.17
2022-11-28T16:01:36.695Z,33.38
2022-11-28T16:06:40.547Z,29.02
2022-11-28T16:11:44.275Z,28.50
2022-11-28T16:16:45.525Z,28.98
2022-11-28T16:21:53.481Z,34.90
2022-11-28T16:27:08.771Z,31.23
2022-11-28T16:32:22.652Z,30.98
2022-11-28T16:37:26.507Z,28.98
2022-11-28T16:42:27.649Z,29.17
2022-11-28T16:47:30.301Z,31.37
2022-11-28T16:52:50.774Z,31.98
2022-11-28T16:57:56.224Z,25.20
2022-11-28T17:02:56.965Z,21.45
2022-11-28T17:08:00.879Z,20.35
2022-11-28T17:13:01.610Z,27.77
2022-11-28T17:18:02.781Z,30.05
2022-11-28T17:23:03.840Z,30.88
2022-11-28T17:28:04.617Z,26.90
2022-11-28T17:33:05.353Z,24.00
2022-11-28T17:38:06.426Z,22.73
2022-11-28T17:43:15.810Z,22.62
2022-11-28T17:48:17.364Z,23.58
2022-11-28T17:53:20.549Z,24.20
2022-11-28T17:58:25.900Z,23.23
2022-11-28T18:03:28.395Z,23.75
2022-11-28T18:08:29.547Z,29.37
2022-11-28T18:13:31.185Z,26.10
2022-11-28T18:18:32.373Z,21.83
2022-11-28T18:23:38.869Z,24.77
2022-11-28T18:28:40.742Z,23.08
2022-11-28T18:33:42.514Z,21.50
2022-11-28T18:38:45.164Z,21.05
2022-11-28T18:43:46.116Z,21.48
2022-11-28T18:48:47.143Z,20.37
2022-11-28T18:53:49.592Z,23.30
2022-11-28T19:03:59.404Z,22.70
2022-11-28T19:09:03.328Z,23.20
2022-11-28T19:14:06.117Z,23.67
2022-11-28T19:19:07.012Z,23.00
2022-11-28T19:24:11.521Z,22.05
2022-11-28T19:29:12.417Z,22.60
2022-11-28T19:34:16.632Z,27.45
2022-11-28T19:39:21.865Z,25.50
2022-11-28T19:44:23.997Z,28.38
2022-11-28T19:49:25.681Z,29.33
2022-11-28T19:54:26.597Z,29.73
2022-11-28T19:59:30.476Z,30.08
2022-11-28T20:04:31.785Z,30.05
2022-11-28T20:09:32.594Z,29.17
2022-11-28T20:14:33.466Z,28.77
2022-11-28T20:19:34.413Z,23.33
2022-11-28T20:24:35.175Z,25.62
2022-11-28T20:29:36.230Z,24.35
2022-11-28T20:34:37.231Z,29.60
2022-11-28T20:39:39.403Z,25.00
2022-11-28T20:44:40.134Z,25.48
2022-11-28T20:49:41.298Z,28.33
2022-11-28T20:54:42.284Z,27.10
2022-11-28T20:59:43.452Z,30.20
2022-11-28T21:04:44.455Z,27.60
2022-11-28T21:09:45.555Z,25.30
2022-11-28T21:14:46.508Z,26.52
2022-11-28T21:19:47.543Z,29.27
2022-11-28T21:24:49.783Z,25.62
2022-11-28T21:29:51.535Z,26.20
2022-11-28T21:34:52.826Z,30.30
2022-11-28T21:39:53.816Z,26.27
2022-11-28T21:44:54.641Z,24.45
2022-11-28T21:49:55.743Z,26.85
2022-11-28T21:54:56.578Z,23.25
2022-11-28T21:59:57.427Z,23.62
2022-11-28T22:04:59.207Z,25.67
2022-11-28T22:10:00.287Z,24.15
2022-11-28T22:15:01.213Z,24.85
2022-11-28T22:20:04.336Z,23.73
2022-11-28T22:25:06.127Z,24.77
2022-11-28T22:30:08.935Z,23.75
2022-11-28T22:35:09.685Z,23.23
2022-11-28T22:40:11.955Z,24.25
2022-11-28T22:45:12.893Z,22.08
2022-11-28T22:50:14.032Z,20.77
2022-11-28T22:55:14.967Z,19.30
2022-11-28T23:00:16.492Z,17.48
2022-11-28T23:05:17.715Z,17.02
2022-11-28T23:10:18.570Z,18.27
2022-11-28T23:15:19.356Z,17.40
2022-11-28T23:20:21.484Z,18.70
2022-11-28T23:25:22.196Z,18.15
2022-11-28T23:30:26.423Z,18.27
2022-11-28T23:35:27.155Z,21.80
2022-11-28T23:40:28.512Z,20.55
2022-11-28T23:45:29.314Z,23.08
2022-11-28T23:50:31.161Z,17.62
2022-11-28T23:55:33.124Z,18.27
